createdAt,value
2019-03-06T00:02:46.715Z,63.13
2019-03-06T00:05:48.709Z,63.11
2019-03-06T00:08:50.677Z,63.20
2019-03-06T00:11:52.796Z,63.45
2019-03-06T00:14:54.798Z,63.45
2019-03-06T00:17:56.725Z,63.39
2019-03-06T00:20:58.673Z,63.30
2019-03-06T00:24:00.711Z,63.30
2019-03-06T00:27:02.750Z,63.38
2019-03-06T00:30:08.337Z,63.46
2019-03-06T00:33:10.399Z,63.80
2019-03-06T00:36:14.186Z,64.27
2019-03-06T00:39:16.190Z,64.33
2019-03-06T00:42:18.332Z,64.63
2019-03-06T00:45:20.271Z,64.76
2019-03-06T00:48:22.219Z,64.89
2019-03-06T00:51:24.137Z,65.03
2019-03-06T00:54:26.136Z,65.13
2019-03-06T00:57:28.048Z,64.97
2019-03-06T01:00:30.033Z,65.03
2019-03-06T01:03:31.947Z,64.63
2019-03-06T01:06:34.088Z,64.45
2019-03-06T01:09:36.029Z,64.21
2019-03-06T01:12:38.658Z,64.13
2019-03-06T01:15:40.602Z,63.90
2019-03-06T01:18:42.550Z,63.83
2019-03-06T01:21:44.835Z,63.86
2019-03-06T01:24:46.796Z,63.90
2019-03-06T01:27:48.753Z,63.91
2019-03-06T01:30:50.694Z,64.02
2019-03-06T01:33:54.487Z,64.08
2019-03-06T01:36:58.209Z,64.11
2019-03-06T01:40:01.998Z,64.28
2019-03-06T01:43:11.510Z,64.51
2019-03-06T01:46:13.969Z,64.56
2019-03-06T01:49:15.968Z,64.58
2019-03-06T01:52:17.975Z,64.66
2019-03-06T01:55:19.975Z,64.82
2019-03-06T01:58:21.989Z,64.79
2019-03-06T02:01:23.975Z,64.92
2019-03-06T02:04:26.535Z,64.83
2019-03-06T02:07:28.429Z,64.90
2019-03-06T02:10:31.469Z,64.87
2019-03-06T02:13:33.391Z,64.75
2019-03-06T02:16:35.349Z,64.71
2019-03-06T02:19:37.341Z,64.61
2019-03-06T02:22:39.604Z,64.65
2019-03-06T02:25:41.585Z,64.73
2019-03-06T02:28:43.506Z,64.79
2019-03-06T02:31:45.511Z,64.86
2019-03-06T02:34:47.444Z,64.92
2019-03-06T02:37:49.400Z,64.96
2019-03-06T02:40:51.317Z,64.95
2019-03-06T02:43:53.316Z,64.93
2019-03-06T02:46:57.394Z,65.07
2019-03-06T02:49:59.348Z,64.93
2019-03-06T02:53:01.277Z,65.01
2019-03-06T02:56:03.293Z,65.10
2019-03-06T02:59:07.150Z,64.87
2019-03-06T03:02:11.059Z,64.96
2019-03-06T03:05:17.586Z,64.98
2019-03-06T03:08:19.550Z,64.90
2019-03-06T03:11:21.585Z,64.95
2019-03-06T03:14:23.511Z,65.20
2019-03-06T03:17:25.410Z,65.35
2019-03-06T03:20:27.339Z,65.34
2019-03-06T03:23:29.399Z,65.27
2019-03-06T03:26:31.304Z,65.28
2019-03-06T03:29:33.310Z,65.33
2019-03-06T03:32:35.267Z,65.30
2019-03-06T03:35:37.223Z,65.24
2019-03-06T03:38:39.177Z,65.37
2019-03-06T03:41:41.216Z,65.40
2019-03-06T03:44:43.210Z,65.50
2019-03-06T03:47:45.269Z,65.40
2019-03-06T03:50:47.816Z,65.52
2019-03-06T03:53:49.773Z,65.65
2019-03-06T03:56:51.845Z,65.72
2019-03-06T03:59:55.784Z,65.92
2019-03-06T04:02:58.083Z,65.97
2019-03-06T04:06:00.105Z,65.96
2019-03-06T04:09:02.521Z,65.99
2019-03-06T04:12:06.333Z,66.04
2019-03-06T04:15:11.691Z,66.31
2019-03-06T04:18:13.873Z,65.96
2019-03-06T04:21:15.830Z,65.82
2019-03-06T04:24:17.828Z,65.66
2019-03-06T04:27:19.797Z,65.61
2019-03-06T04:30:21.800Z,65.77
2019-03-06T04:33:23.794Z,65.77
2019-03-06T04:36:25.764Z,65.93
2019-03-06T04:39:27.690Z,65.96
2019-03-06T04:42:29.619Z,66.00
2019-03-06T04:45:31.552Z,65.92
2019-03-06T04:48:33.565Z,65.93
2019-03-06T04:51:35.544Z,66.01
2019-03-06T04:54:37.542Z,66.12
2019-03-06T04:57:39.557Z,66.03
2019-03-06T05:00:41.509Z,66.07
2019-03-06T05:03:43.503Z,66.07
2019-03-06T05:06:45.452Z,65.82
2019-03-06T05:09:47.407Z,65.70
2019-03-06T05:12:49.301Z,65.77
2019-03-06T05:15:51.429Z,66.04
2019-03-06T05:18:55.229Z,66.00
2019-03-06T05:21:57.197Z,65.97
2019-03-06T05:24:59.220Z,66.18
2019-03-06T05:28:01.117Z,66.35
2019-03-06T05:31:03.035Z,66.01
2019-03-06T05:34:05.051Z,65.76
2019-03-06T05:37:41.478Z,65.92
2019-03-06T05:40:43.515Z,65.71
2019-03-06T05:43:45.461Z,65.56
2019-03-06T05:46:47.423Z,65.18
2019-03-06T05:49:49.468Z,64.59
2019-03-06T05:52:51.380Z,63.70
2019-03-06T05:55:53.336Z,62.63
2019-03-06T05:58:55.405Z,61.53
2019-03-06T06:01:57.328Z,60.39
2019-03-06T06:04:59.407Z,59.36
2019-03-06T06:08:01.415Z,58.31
2019-03-06T06:11:03.608Z,57.05
2019-03-06T06:14:05.567Z,56.02
2019-03-06T06:17:07.537Z,54.74
2019-03-06T06:20:11.697Z,53.68
2019-03-06T06:23:31.829Z,52.82
2019-03-06T06:26:33.876Z,51.80
2019-03-06T06:29:35.873Z,51.58
2019-03-06T06:32:37.866Z,50.37
2019-03-06T06:35:39.842Z,49.92
2019-03-06T06:38:43.077Z,50.12
2019-03-06T06:41:45.209Z,50.27
2019-03-06T06:44:47.174Z,49.22
2019-03-06T06:48:11.686Z,48.84
2019-03-06T06:51:27.122Z,47.74
2019-03-06T06:54:50.210Z,47.04
2019-03-06T06:58:14.242Z,46.94
2019-03-06T07:01:27.492Z,46.38
2019-03-06T07:04:46.733Z,46.34
2019-03-06T07:07:56.351Z,45.82
2019-03-06T07:11:00.197Z,45.89
2019-03-06T07:14:07.001Z,46.31
2019-03-06T07:17:10.837Z,45.96
2019-03-06T07:20:14.763Z,45.96
2019-03-06T07:23:18.605Z,45.39
2019-03-06T07:26:31.347Z,45.01
2019-03-06T07:29:38.951Z,44.01
2019-03-06T07:32:45.877Z,43.83
2019-03-06T07:36:10.625Z,44.02
2019-03-06T07:39:19.633Z,43.92
2019-03-06T07:42:32.531Z,43.84
2019-03-06T07:45:51.358Z,44.20
2019-03-06T07:48:55.616Z,44.22
2019-03-06T07:52:09.537Z,43.87
2019-03-06T07:55:22.136Z,42.78
2019-03-06T07:58:47.671Z,43.51
2019-03-06T08:01:53.413Z,43.67
2019-03-06T08:04:55.404Z,43.42
2019-03-06T08:07:57.328Z,43.67
2019-03-06T08:11:00.595Z,43.53
2019-03-06T08:14:07.329Z,43.67
2019-03-06T08:17:27.862Z,43.56
2019-03-06T08:20:48.494Z,43.56
2019-03-06T08:23:55.123Z,43.96
2019-03-06T08:26:57.124Z,43.49
2019-03-06T08:29:59.100Z,43.60
2019-03-06T08:33:00.998Z,44.50
2019-03-06T08:36:03.090Z,44.57
2019-03-06T08:39:16.957Z,45.22
2019-03-06T08:42:19.463Z,46.39
2019-03-06T08:45:23.200Z,46.01
2019-03-06T08:48:29.974Z,46.48
2019-03-06T08:51:33.750Z,46.78
2019-03-06T08:54:40.890Z,47.04
2019-03-06T08:58:00.982Z,46.89
2019-03-06T09:01:35.376Z,46.92
2019-03-06T09:04:43.038Z,46.82
2019-03-06T09:07:47.105Z,47.35
2019-03-06T09:10:51.935Z,45.57
2019-03-06T09:14:07.831Z,46.23
2019-03-06T09:17:26.860Z,47.28
2019-03-06T09:20:47.164Z,46.56
2019-03-06T09:23:50.921Z,47.11
2019-03-06T09:26:54.997Z,47.12
2019-03-06T09:30:01.798Z,48.28
2019-03-06T09:33:22.121Z,47.98
2019-03-06T09:36:32.238Z,46.98
2019-03-06T09:39:54.595Z,47.26
2019-03-06T09:43:04.015Z,47.24
2019-03-06T09:46:16.926Z,47.74
2019-03-06T09:49:26.808Z,47.65
2019-03-06T09:52:39.609Z,46.77
2019-03-06T09:55:46.372Z,46.46
2019-03-06T09:58:53.607Z,47.58
2019-03-06T10:02:06.859Z,47.35
2019-03-06T10:05:18.155Z,49.21
2019-03-06T10:08:27.774Z,48.20
2019-03-06T10:11:31.619Z,48.33
2019-03-06T10:14:47.443Z,47.87
2019-03-06T10:17:51.304Z,48.62
2019-03-06T10:20:53.323Z,48.11
2019-03-06T10:23:55.339Z,47.39
2019-03-06T10:26:57.474Z,46.89
2019-03-06T10:29:59.849Z,47.08
2019-03-06T10:33:01.791Z,46.63
2019-03-06T10:36:03.717Z,46.38
2019-03-06T10:39:06.013Z,46.03
2019-03-06T10:42:09.796Z,46.14
2019-03-06T10:48:27.794Z,46.11
2019-03-06T10:51:31.078Z,44.86
2019-03-06T10:54:33.379Z,46.10
2019-03-06T10:57:35.992Z,45.89
2019-03-06T11:00:50.615Z,45.67
2019-03-06T11:03:54.433Z,44.87
2019-03-06T11:06:56.544Z,43.96
2019-03-06T11:09:58.911Z,45.12
2019-03-06T11:13:02.972Z,45.18
2019-03-06T11:16:07.145Z,44.36
2019-03-06T11:19:09.325Z,44.96
2019-03-06T11:22:11.846Z,44.63
2019-03-06T11:25:16.671Z,44.61
2019-03-06T11:28:18.851Z,44.03
2019-03-06T11:31:20.893Z,43.28
2019-03-06T11:34:22.876Z,43.86
2019-03-06T11:37:25.808Z,44.87
2019-03-06T11:40:28.096Z,43.98
2019-03-06T11:43:33.259Z,43.83
2019-03-06T11:46:35.473Z,42.82
2019-03-06T11:49:37.389Z,43.86
2019-03-06T11:52:39.409Z,42.58
2019-03-06T11:55:41.570Z,42.91
2019-03-06T11:58:43.711Z,43.17
2019-03-06T12:01:48.295Z,42.43
2019-03-06T12:04:50.584Z,43.33
2019-03-06T12:07:52.586Z,43.01
2019-03-06T12:10:55.066Z,44.28
2019-03-06T12:13:57.344Z,43.93
2019-03-06T12:16:59.686Z,42.97
2019-03-06T12:20:08.299Z,43.09
2019-03-06T12:23:07.158Z,42.96
2019-03-06T12:26:09.231Z,43.50
2019-03-06T12:29:11.148Z,42.92
2019-03-06T12:32:13.308Z,42.33
2019-03-06T12:35:16.681Z,41.98
2019-03-06T12:38:20.135Z,41.46
2019-03-06T12:41:23.231Z,41.12
2019-03-06T12:44:25.247Z,41.15
2019-03-06T12:47:27.477Z,42.15
2019-03-06T12:50:39.492Z,42.44
2019-03-06T12:53:41.514Z,41.54
2019-03-06T12:56:43.595Z,42.36
2019-03-06T12:59:45.567Z,41.74
2019-03-06T13:02:47.947Z,41.74
2019-03-06T13:05:49.850Z,41.91
2019-03-06T13:08:51.883Z,41.38
2019-03-06T13:11:53.820Z,41.16
2019-03-06T13:14:56.301Z,42.18
2019-03-06T13:17:58.365Z,42.22
2019-03-06T13:21:00.366Z,41.36
2019-03-06T13:24:02.545Z,41.60
2019-03-06T13:27:05.951Z,41.31
2019-03-06T13:30:11.299Z,41.37
2019-03-06T13:33:31.820Z,39.53
2019-03-06T13:36:33.750Z,41.72
2019-03-06T13:39:35.771Z,41.19
2019-03-06T13:42:37.732Z,40.47
2019-03-06T13:45:39.946Z,41.46
2019-03-06T13:48:41.920Z,39.55
2019-03-06T13:51:43.912Z,39.27
2019-03-06T13:54:46.214Z,39.00
2019-03-06T13:57:48.373Z,38.97
2019-03-06T14:00:50.721Z,37.65
2019-03-06T14:03:53.252Z,37.50
2019-03-06T14:06:55.251Z,38.42
2019-03-06T14:09:57.479Z,39.21
2019-03-06T14:12:59.453Z,39.50
2019-03-06T14:16:01.511Z,38.92
2019-03-06T14:19:03.565Z,37.85
2019-03-06T14:22:05.574Z,38.44
2019-03-06T14:25:09.586Z,38.32
2019-03-06T14:28:12.033Z,37.38
2019-03-06T14:31:15.484Z,37.76
2019-03-06T14:34:17.526Z,37.10
2019-03-06T14:37:19.614Z,37.90
2019-03-06T14:40:30.811Z,37.39
2019-03-06T14:43:32.883Z,37.71
2019-03-06T14:46:34.780Z,37.67
2019-03-06T14:49:36.716Z,37.76
2019-03-06T14:52:38.648Z,37.57
2019-03-06T14:55:40.776Z,37.91
2019-03-06T14:58:42.732Z,38.71
2019-03-06T15:01:44.682Z,38.77
2019-03-06T15:04:46.691Z,38.85
2019-03-06T15:07:48.672Z,39.13
2019-03-06T15:10:50.993Z,38.65
2019-03-06T15:13:53.936Z,38.77
2019-03-06T15:16:55.875Z,40.68
2019-03-06T15:19:58.086Z,39.84
2019-03-06T15:23:00.058Z,40.28
2019-03-06T15:26:02.099Z,41.00
2019-03-06T15:29:04.209Z,41.52
2019-03-06T15:32:06.298Z,41.74
2019-03-06T15:35:10.600Z,41.82
2019-03-06T15:38:13.015Z,42.25
2019-03-06T15:41:15.066Z,42.50
2019-03-06T15:44:17.313Z,42.62
2019-03-06T15:47:19.757Z,43.43
2019-03-06T15:50:21.901Z,43.30
2019-03-06T15:53:25.018Z,44.14
2019-03-06T15:56:27.783Z,44.45
2019-03-06T15:59:29.736Z,44.95
2019-03-06T16:02:31.844Z,45.27
2019-03-06T16:05:34.970Z,46.06
2019-03-06T16:08:36.900Z,46.42
2019-03-06T16:11:39.315Z,46.80
2019-03-06T16:14:41.304Z,46.50
2019-03-06T16:17:43.430Z,47.01
2019-03-06T16:20:46.022Z,46.97
2019-03-06T16:23:48.164Z,46.93
2019-03-06T16:26:50.929Z,46.94
2019-03-06T16:29:52.894Z,46.97
2019-03-06T16:32:54.961Z,47.29
2019-03-06T16:35:57.055Z,47.55
2019-03-06T16:38:59.253Z,47.87
2019-03-06T16:42:01.158Z,48.43
2019-03-06T16:45:05.215Z,49.18
2019-03-06T16:48:07.282Z,50.29
2019-03-06T16:51:09.683Z,50.62
2019-03-06T16:54:11.844Z,50.79
2019-03-06T16:57:14.202Z,51.11
2019-03-06T17:00:29.346Z,51.37
2019-03-06T17:03:32.219Z,51.54
2019-03-06T17:06:34.211Z,51.74
2019-03-06T17:09:36.723Z,52.06
2019-03-06T17:12:38.855Z,51.91
2019-03-06T17:15:40.839Z,51.89
2019-03-06T17:18:44.220Z,51.87
2019-03-06T17:21:46.251Z,51.81
2019-03-06T17:24:48.254Z,51.95
2019-03-06T17:27:50.522Z,52.12
2019-03-06T17:30:52.464Z,52.06
2019-03-06T17:33:54.414Z,52.08
2019-03-06T17:36:57.460Z,52.20
2019-03-06T17:39:59.652Z,52.16
2019-03-06T17:43:01.854Z,52.76
2019-03-06T17:46:06.569Z,52.88
2019-03-06T17:49:10.763Z,53.39
2019-03-06T17:52:12.664Z,53.39
2019-03-06T17:55:17.355Z,53.96
2019-03-06T17:58:20.629Z,54.15
2019-03-06T18:01:22.702Z,53.90
2019-03-06T18:04:24.633Z,53.29
2019-03-06T18:07:26.579Z,52.79
2019-03-06T18:10:28.831Z,52.90
2019-03-06T18:13:32.070Z,52.84
2019-03-06T18:16:34.066Z,52.91
2019-03-06T18:19:37.955Z,53.19
2019-03-06T18:22:43.516Z,53.30
2019-03-06T18:25:46.251Z,53.60
2019-03-06T18:28:48.306Z,54.04
2019-03-06T18:31:50.283Z,54.16
2019-03-06T18:34:52.603Z,54.46
2019-03-06T18:37:55.902Z,54.48
2019-03-06T18:40:58.439Z,54.09
2019-03-06T18:44:03.120Z,54.13
2019-03-06T18:47:07.518Z,54.22
2019-03-06T18:50:12.320Z,53.85
2019-03-06T18:53:16.365Z,53.78
2019-03-06T18:56:22.248Z,53.65
2019-03-06T18:59:24.727Z,53.45
2019-03-06T19:02:26.783Z,53.69
2019-03-06T19:05:28.752Z,53.99
2019-03-06T19:08:31.616Z,54.14
2019-03-06T19:11:35.558Z,54.29
2019-03-06T19:14:39.901Z,54.23
2019-03-06T19:17:42.322Z,54.43
2019-03-06T19:20:44.421Z,54.56
2019-03-06T19:23:48.209Z,55.35
2019-03-06T19:26:52.846Z,56.35
2019-03-06T19:29:57.326Z,56.92
2019-03-06T19:32:59.676Z,57.40
2019-03-06T19:36:02.948Z,58.09
2019-03-06T19:39:06.678Z,58.60
2019-03-06T19:42:10.214Z,58.89
2019-03-06T19:45:14.889Z,59.04
2019-03-06T19:48:17.790Z,59.30
2019-03-06T19:51:22.564Z,59.75
2019-03-06T19:54:27.322Z,60.20
2019-03-06T19:57:33.078Z,60.20
2019-03-06T20:00:37.066Z,60.30
2019-03-06T20:03:39.892Z,60.61
2019-03-06T20:06:42.478Z,60.61
2019-03-06T20:09:47.527Z,60.57
2019-03-06T20:12:49.668Z,60.42
2019-03-06T20:15:52.171Z,60.51
2019-03-06T20:18:54.674Z,60.52
2019-03-06T20:21:56.772Z,60.71
2019-03-06T20:25:00.320Z,60.94
2019-03-06T20:28:02.630Z,61.07
2019-03-06T20:31:05.319Z,61.00
2019-03-06T20:34:10.643Z,61.23
2019-03-06T20:37:12.736Z,61.37
2019-03-06T20:40:14.799Z,61.46
2019-03-06T20:43:17.185Z,61.43
2019-03-06T20:46:22.212Z,61.46
2019-03-06T20:49:23.948Z,61.45
2019-03-06T20:52:27.154Z,61.34
2019-03-06T20:55:31.512Z,61.03
2019-03-06T20:58:37.448Z,60.75
2019-03-06T21:01:40.096Z,60.52
2019-03-06T21:04:42.155Z,60.35
2019-03-06T21:07:45.127Z,60.05
2019-03-06T21:10:48.123Z,59.86
2019-03-06T21:13:51.609Z,59.69
2019-03-06T21:16:55.045Z,59.89
2019-03-06T21:20:00.397Z,60.05
2019-03-06T21:23:02.414Z,60.16
2019-03-06T21:26:05.376Z,60.49
2019-03-06T21:29:07.462Z,60.39
2019-03-06T21:32:09.458Z,60.47
2019-03-06T21:35:12.788Z,60.39
2019-03-06T21:38:14.883Z,60.72
2019-03-06T21:41:17.369Z,60.74
2019-03-06T21:44:19.419Z,60.96
2019-03-06T21:47:24.333Z,61.30
2019-03-06T21:50:28.065Z,61.82
2019-03-06T21:53:30.064Z,61.97
2019-03-06T21:56:32.029Z,61.65
2019-03-06T21:59:34.064Z,61.65
2019-03-06T22:02:36.166Z,61.76
2019-03-06T22:05:38.157Z,61.84
2019-03-06T22:08:40.365Z,61.99
2019-03-06T22:11:43.536Z,62.39
2019-03-06T22:14:45.502Z,62.45
2019-03-06T22:17:47.952Z,62.46
2019-03-06T22:20:49.851Z,62.40
2019-03-06T22:23:51.833Z,62.39
2019-03-06T22:26:53.787Z,62.49
2019-03-06T22:29:55.793Z,62.12
2019-03-06T22:32:59.585Z,61.88
2019-03-06T22:36:01.736Z,61.79
2019-03-06T22:39:05.038Z,61.95
2019-03-06T22:42:08.986Z,62.11
2019-03-06T22:45:13.487Z,62.33
2019-03-06T22:48:15.430Z,62.44
2019-03-06T22:51:17.426Z,62.39
2019-03-06T22:54:19.402Z,62.28
2019-03-06T22:57:21.330Z,62.21
2019-03-06T23:00:29.760Z,62.33
2019-03-06T23:03:33.628Z,62.08
2019-03-06T23:06:35.829Z,61.46
2019-03-06T23:09:37.714Z,61.18
2019-03-06T23:12:39.665Z,61.10
2019-03-06T23:15:41.597Z,60.83
2019-03-06T23:18:43.792Z,61.27
2019-03-06T23:21:45.718Z,61.45
2019-03-06T23:24:48.757Z,61.56
2019-03-06T23:27:51.113Z,61.82
2019-03-06T23:30:53.093Z,62.18
2019-03-06T23:33:55.120Z,62.77
2019-03-06T23:36:57.151Z,63.07
2019-03-06T23:39:59.050Z,63.58
2019-03-06T23:43:01.107Z,63.61
2019-03-06T23:46:03.029Z,63.42
2019-03-06T23:49:05.035Z,63.24
2019-03-06T23:52:08.760Z,63.22
2019-03-06T23:55:12.434Z,63.01
2019-03-06T23:58:14.354Z,62.93
